Time;durP1;ratioP1;P1;durP2;ratioP2;P2;SDS_P1;SDS_P2;PMS_P1;PMS_P2;Temp;Humidity;BMP_temperature;BMP_pressure;BME280_temperature;BME280_humidity;BME280_pressure;Samples;Min_cycle;Max_cycle;Signal;HPM_P1;HPM_P2
2023/11/20 00:02:06;;;;;;;;;;;;;;;;;;10411347;28;19945;-71
2023/11/20 00:07:06;;;;;;;;;;;;;;;;;;10411098;28;19928;-71
2023/11/20 00:12:07;;;;;;;;;;;;;;;;;;10411306;28;19905;-72
2023/11/20 00:17:07;;;;;;;;;;;;;;;;;;10417888;28;19932;-71
2023/11/20 00:22:09;;;;;;;;;;;;;;;;;;10418578;28;19912;-71
2023/11/20 00:27:09;;;;;;;;;;;;;;;;;;10418344;28;19905;-72
2023/11/20 00:32:09;;;;;;;;;;;;;;;;;;10418153;28;19992;-71
2023/11/20 00:37:10;;;;;;;;;;;;;;;;;;10417732;28;19909;-71
2023/11/20 00:42:10;;;;;;;;;;;;;;;;;;10417705;28;19931;-71
2023/11/20 00:47:11;;;;;;;;;;;;;;;;;;10417502;28;19909;-71
2023/11/20 00:52:12;;;;;;;;;;;;;;;;;;10417143;28;19913;-71
2023/11/20 00:57:12;;;;;;;;;;;;;;;;;;10378362;28;19955;-71
2023/11/20 01:02:12;;;;;;;;;;;;;;;;;;10376057;28;20441;-71
2023/11/20 01:07:13;;;;;;;;;;;;;;;;;;10370101;28;19912;-71
2023/11/20 01:12:13;;;;;;;;;;;;;;;;;;10398223;28;19911;-71
2023/11/20 01:17:13;;;;;;;;;;;;;;;;;;10409118;28;19937;-70
2023/11/20 01:22:13;;;;;;;;;;;;;;;;;;10375350;28;19909;-71
2023/11/20 01:27:13;;;;;;;;;;;;;;;;;;10374307;28;19905;-70
2023/11/20 01:32:13;;;;;;;;;;;;;;;;;;10374858;28;19909;-70
2023/11/20 01:37:14;;;;;;;;;;;;;;;;;;10375366;28;19909;-70
2023/11/20 01:42:14;;;;;;;;;;;;;;;;;;10375318;28;20347;-69
2023/11/20 01:47:14;;;;;;;;;;;;;;;;;;10397275;28;19944;-70
2023/11/20 01:52:14;;;;;;;;;;;;;;;;;;10376499;28;19914;-71
2023/11/20 01:57:14;;;;;;;;;;;;;;;;;;10377241;28;19999;-71
2023/11/20 02:02:14;;;;;;;;;;;;;;;;;;10386756;28;20462;-70
2023/11/20 02:07:14;;;;;;;;;;;;;;;;;;10374350;28;20371;-70
2023/11/20 02:12:15;;;;;;;;;;;;;;;;;;10366038;28;19960;-70
2023/11/20 02:17:15;;;;;;;;;;;;;;;;;;10408474;28;19916;-70
2023/11/20 02:22:15;;;;;;;;;;;;;;;;;;10392355;28;20007;-70
2023/11/20 02:27:15;;;;;;;;;;;;;;;;;;10397747;28;20337;-71
2023/11/20 02:32:15;;;;;;;;;;;;;;;;;;10357264;28;20393;-71
2023/11/20 02:37:15;;;;;;;;;;;;;;;;;;10373143;28;19910;-70
2023/11/20 02:42:15;;;;;;;;;;;;;;;;;;10372273;28;20036;-70
2023/11/20 02:47:15;;;;;;;;;;;;;;;;;;10375240;28;19967;-70
2023/11/20 02:52:16;;;;;;;;;;;;;;;;;;10355701;28;19913;-71
2023/11/20 02:57:16;;;;;;;;;;;;;;;;;;10408070;28;19916;-70
2023/11/20 03:02:16;;;;;;;;;;;;;;;;;;10406109;28;19912;-70
2023/11/20 03:07:16;;;;;;;;;;;;;;;;;;10371514;28;19964;-70
2023/11/20 03:12:17;;;;;;;;;;;;;;;;;;10367943;28;19920;-70
2023/11/20 03:17:17;;;;;;;;;;;;;;;;;;10358124;28;19909;-70
2023/11/20 03:22:17;;;;;;;;;;;;;;;;;;10350675;28;19906;-71
2023/11/20 03:27:17;;;;;;;;;;;;;;;;;;10371581;28;20497;-70
2023/11/20 03:32:18;;;;;;;;;;;;;;;;;;10371026;28;19960;-71
2023/11/20 03:37:18;;;;;;;;;;;;;;;;;;10395671;28;19958;-70
2023/11/20 03:42:18;;;;;;;;;;;;;;;;;;10387315;28;19912;-70
2023/11/20 03:47:18;;;;;;;;;;;;;;;;;;10390249;28;19967;-70
2023/11/20 03:52:18;;;;;;;;;;;;;;;;;;10383078;28;20375;-71
2023/11/20 03:57:19;;;;;;;;;;;;;;;;;;10354786;28;19914;-70
2023/11/20 04:02:19;;;;;;;;;;;;;;;;;;10393233;28;19912;-71
2023/11/20 04:07:19;;;;;;;;;;;;;;;;;;10367803;28;20370;-71
2023/11/20 04:12:19;;;;;;;;;;;;;;;;;;10400073;28;19912;-70
2023/11/20 04:17:20;;;;;;;;;;;;;;;;;;10392691;28;19909;-70
2023/11/20 04:22:21;;;;;;;;;;;;;;;;;;10380144;28;19909;-70
2023/11/20 04:27:23;;;;;;;;;;;;;;;;;;10366864;28;19913;-70
2023/11/20 04:32:23;;;;;;;;;;;;;;;;;;10385728;28;19945;-70
2023/11/20 04:37:23;;;;;;;;;;;;;;;;;;10386280;28;20014;-70
2023/11/20 04:42:23;;;;;;;;;;;;;;;;;;10380775;28;19911;-70
2023/11/20 04:47:26;;;;;;;;;;;;;;;;;;10388413;28;20353;-71
2023/11/20 04:52:26;;;;;;;;;;;;;;;;;;10381290;28;19914;-71
2023/11/20 04:57:26;;;;;;;;;;;;;;;;;;10382516;28;19909;-70
2023/11/20 05:02:26;;;;;;;;;;;;;;;;;;10412032;28;19948;-71
2023/11/20 05:07:26;;;;;;;;;;;;;;;;;;10386671;28;19951;-70
2023/11/20 05:12:26;;;;;;;;;;;;;;;;;;10391587;28;19992;-71
2023/11/20 05:17:28;;;;;;;;;;;;;;;;;;10393511;28;19958;-71
2023/11/20 05:22:28;;;;;;;;;;;;;;;;;;10386762;28;19941;-70
2023/11/20 05:27:28;;;;;;;;;;;;;;;;;;10387031;28;19952;-70
2023/11/20 05:32:28;;;;;;;;;;;;;;;;;;10382101;28;19905;-71
2023/11/20 05:37:28;;;;;;;;;;;;;;;;;;10370179;28;19996;-70
2023/11/20 05:42:28;;;;;;;;;;;;;;;;;;10372022;28;20383;-71
2023/11/20 05:47:28;;;;;;;;;;;;;;;;;;10385588;28;19910;-71
2023/11/20 05:52:29;;;;;;;;;;;;;;;;;;10372198;28;20399;-71
2023/11/20 05:57:30;;;;;;;;;;;;;;;;;;10378797;28;19947;-71
2023/11/20 06:02:30;;;;;;;;;;;;;;;;;;10385362;28;19912;-71
2023/11/20 06:07:30;;;;;;;;;;;;;;;;;;10381688;28;19905;-71
2023/11/20 06:12:30;;;;;;;;;;;;;;;;;;10379877;28;19909;-71
2023/11/20 06:17:31;;;;;;;;;;;;;;;;;;10385188;28;19913;-71
2023/11/20 06:22:31;;;;;;;;;;;;;;;;;;10383727;28;19950;-71
2023/11/20 06:27:31;;;;;;;;;;;;;;;;;;10373176;28;20327;-70
2023/11/20 06:32:31;;;;;;;;;;;;;;;;;;10385191;28;19905;-70
2023/11/20 06:37:31;;;;;;;;;;;;;;;;;;10375432;28;20327;-71
2023/11/20 06:42:32;;;;;;;;;;;;;;;;;;10384516;28;19959;-70
2023/11/20 06:47:32;;;;;;;;;;;;;;;;;;10374129;28;19911;-71
2023/11/20 06:52:32;;;;;;;;;;;;;;;;;;10382405;28;19913;-70
2023/11/20 06:57:32;;;;;;;;;;;;;;;;;;10374191;28;20363;-71
2023/11/20 07:02:33;;;;;;;;;;;;;;;;;;10379362;28;20000;-70
2023/11/20 07:07:40;;;;;;;;;;;;;;;;;;10379946;28;19956;-71
2023/11/20 07:12:40;;;;;;;;;;;;;;;;;;10378287;28;19912;-70
2023/11/20 07:17:41;;;;;;;;;;;;;;;;;;10381749;28;20297;-70
2023/11/20 07:22:41;;;;;;;;;;;;;;;;;;10374100;28;20011;-70
2023/11/20 07:27:41;;;;;;;;;;;;;;;;;;10401442;28;20003;-70
2023/11/20 07:32:41;;;;;;;;;;;;;;;;;;10395306;28;19962;-70
2023/11/20 07:37:42;;;;;;;;;;;;;;;;;;10403404;28;20363;-71
2023/11/20 07:42:42;;;;;;;;;;;;;;;;;;10402554;28;19905;-71
2023/11/20 07:47:42;;;;;;;;;;;;;;;;;;10397249;28;20362;-71
2023/11/20 07:52:42;;;;;;;;;;;;;;;;;;10398637;28;19913;-70
2023/11/20 07:57:42;;;;;;;;;;;;;;;;;;10396040;28;20349;-72
2023/11/20 08:02:43;;;;;;;;;;;;;;;;;;10391770;28;19912;-72
2023/11/20 08:07:43;;;;;;;;;;;;;;;;;;10386509;28;19992;-71
2023/11/20 08:12:43;;;;;;;;;;;;;;;;;;10400674;28;19941;-72
2023/11/20 08:17:44;;;;;;;;;;;;;;;;;;10400830;28;20331;-72
2023/11/20 08:22:44;;;;;;;;;;;;;;;;;;10380956;28;19995;-72
2023/11/20 08:27:44;;;;;;;;;;;;;;;;;;10386794;28;19905;-71
2023/11/20 08:32:44;;;;;;;;;;;;;;;;;;10379558;28;19905;-72
2023/11/20 08:37:44;;;;;;;;;;;;;;;;;;10378290;28;20438;-71
2023/11/20 08:42:46;;;;;;;;;;;;;;;;;;10378874;28;19905;-72
2023/11/20 08:47:46;;;;;;;;;;;;;;;;;;10372357;28;20362;-72
2023/11/20 08:52:47;;;;;;;;;;;;;;;;;;10378586;28;19924;-71
2023/11/20 08:57:47;;;;;;;;;;;;;;;;;;10387779;28;19916;-71
2023/11/20 09:02:47;;;;;;;;;;;;;;;;;;10376171;28;19959;-71
2023/11/20 09:07:47;;;;;;;;;;;;;;;;;;10377301;28;19959;-71
2023/11/20 09:12:47;;;;;;;;;;;;;;;;;;10370642;28;19905;-71
2023/11/20 09:17:48;;;;;;;;;;;;;;;;;;10373376;28;19909;-72
2023/11/20 09:22:48;;;;;;;;;;;;;;;;;;10382633;28;19905;-72
2023/11/20 09:27:48;;;;;;;;;;;;;;;;;;10366740;28;19905;-71
2023/11/20 09:32:48;;;;;;;;;;;;;;;;;;10375568;28;19905;-71
2023/11/20 09:37:48;;;;;;;;;;;;;;;;;;10380610;28;20008;-72
2023/11/20 09:42:48;;;;;;;;;;;;;;;;;;10376287;28;19913;-72
2023/11/20 09:47:48;;;;;;;;;;;;;;;;;;10371567;28;19932;-71
2023/11/20 09:52:48;;;;;;;;;;;;;;;;;;10397056;28;20382;-71
2023/11/20 09:57:52;;;;;;;;;;;;;;;;;;10377305;28;19916;-72
2023/11/20 10:02:52;;;;;;;;;;;;;;;;;;10378921;28;19906;-70
2023/11/20 10:07:52;;;;;;;;;;;;;;;;;;10381062;28;19909;-71
2023/11/20 10:12:53;;;;;;;;;;;;;;;;;;10397178;28;19905;-72
2023/11/20 10:17:54;;;;;;;;;;;;;;;;;;10384576;28;19909;-71
2023/11/20 10:22:54;;;;;;;;;;;;;;;;;;10377723;28;20291;-72
2023/11/20 10:27:54;;;;;;;;;;;;;;;;;;10370048;28;19909;-71
2023/11/20 10:32:54;;;;;;;;;;;;;;;;;;10379127;28;19909;-71
2023/11/20 10:37:54;;;;;;;;;;;;;;;;;;10374150;28;19932;-73
2023/11/20 10:42:55;;;;;;;;;;;;;;;;;;10363305;28;20008;-72
2023/11/20 10:47:55;;;;;;;;;;;;;;;;;;10379106;28;20450;-71
2023/11/20 10:52:55;;;;;;;;;;;;;;;;;;10387406;28;20297;-71
2023/11/20 10:57:55;;;;;;;;;;;;;;;;;;10375912;28;19924;-71
2023/11/20 11:02:57;;;;;;;;;;;;;;;;;;10378724;28;20367;-70
2023/11/20 11:07:57;;;;;;;;;;;;;;;;;;10390817;28;19948;-70
2023/11/20 11:12:57;;;;;;;;;;;;;;;;;;10374721;28;20320;-70
2023/11/20 11:17:57;;;;;;;;;;;;;;;;;;10369806;28;20303;-69
2023/11/20 11:22:58;;;;;;;;;;;;;;;;;;10368282;28;19905;-70
2023/11/20 11:27:58;;;;;;;;;;;;;;;;;;10374900;28;19907;-70
2023/11/20 11:32:58;;;;;;;;;;;;;;;;;;10372537;28;19905;-70
2023/11/20 11:37:58;;;;;;;;;;;;;;;;;;10386902;28;19996;-70
2023/11/20 11:42:58;;;;;;;;;;;;;;;;;;10364008;28;20283;-70
2023/11/20 11:47:59;;;;;;;;;;;;;;;;;;10373049;28;19912;-70
2023/11/20 11:53:00;;;;;;;;;;;;;;;;;;10366777;28;19913;-71
2023/11/20 11:58:01;;;;;;;;;;;;;;;;;;10366785;28;19914;-70
2023/11/20 12:03:08;;;;;;;;;;;;;;;;;;10370933;28;20000;-70
2023/11/20 12:08:08;;;;;;;;;;;;;;;;;;10376295;28;19944;-70
2023/11/20 12:13:09;;;;;;;;;;;;;;;;;;10379607;28;19940;-70
2023/11/20 12:18:10;;;;;;;;;;;;;;;;;;10376206;28;19992;-70
2023/11/20 12:23:10;;;;;;;;;;;;;;;;;;10372822;28;19996;-70
2023/11/20 12:28:10;;;;;;;;;;;;;;;;;;10379730;28;19913;-71
2023/11/20 12:33:10;;;;;;;;;;;;;;;;;;10382578;28;20321;-70
2023/11/20 12:38:10;;;;;;;;;;;;;;;;;;10373484;28;19909;-70
2023/11/20 12:43:10;;;;;;;;;;;;;;;;;;10371580;28;19912;-72
2023/11/20 12:48:10;;;;;;;;;;;;;;;;;;10376917;28;19905;-71
2023/11/20 12:53:11;;;;;;;;;;;;;;;;;;10376824;28;19913;-71
2023/11/20 12:58:11;;;;;;;;;;;;;;;;;;10376422;28;19913;-71
2023/11/20 13:03:11;;;;;;;;;;;;;;;;;;10391763;28;19948;-71
2023/11/20 13:08:12;;;;;;;;;;;;;;;;;;10376118;28;19936;-72
2023/11/20 13:13:12;;;;;;;;;;;;;;;;;;10375978;28;20426;-72
2023/11/20 13:18:15;;;;;;;;;;;;;;;;;;10375621;28;19910;-72
2023/11/20 13:23:17;;;;;;;;;;;;;;;;;;10374775;28;20367;-72
2023/11/20 13:28:17;;;;;;;;;;;;;;;;;;10375325;28;19951;-72
2023/11/20 13:33:17;;;;;;;;;;;;;;;;;;10375116;28;19948;-71
2023/11/20 13:38:17;;;;;;;;;;;;;;;;;;10374890;28;19909;-71
2023/11/20 13:43:17;;;;;;;;;;;;;;;;;;10374744;28;19905;-71
2023/11/20 13:48:17;;;;;;;;;;;;;;;;;;10374705;28;19986;-72
2023/11/20 13:53:18;;;;;;;;;;;;;;;;;;10374199;28;20347;-72
2023/11/20 13:58:22;;;;;;;;;;;;;;;;;;10374039;28;20322;-72
2023/11/20 14:03:23;;;;;;;;;;;;;;;;;;10374016;28;19912;-71
2023/11/20 14:08:29;;;;;;;;;;;;;;;;;;10373813;28;19905;-72
2023/11/20 14:13:29;;;;;;;;;;;;;;;;;;10373731;28;19905;-71
2023/11/20 14:18:30;;;;;;;;;;;;;;;;;;10388612;28;19909;-71
2023/11/20 14:23:30;;;;;;;;;;;;;;;;;;10373267;28;20307;-71
2023/11/20 14:28:30;;;;;;;;;;;;;;;;;;10373182;28;19992;-71
2023/11/20 14:33:31;;;;;;;;;;;;;;;;;;10373061;28;19948;-72
2023/11/20 14:38:32;;;;;;;;;;;;;;;;;;10388078;28;20096;-72
2023/11/20 14:43:32;;;;;;;;;;;;;;;;;;10372701;28;19913;-73
2023/11/20 14:48:33;;;;;;;;;;;;;;;;;;10372589;28;20385;-73
2023/11/20 14:53:33;;;;;;;;;;;;;;;;;;10372279;28;19917;-72
2023/11/20 14:58:35;;;;;;;;;;;;;;;;;;10372083;28;19909;-72
2023/11/20 15:03:36;;;;;;;;;;;;;;;;;;10372093;28;19905;-72
2023/11/20 15:08:36;;;;;;;;;;;;;;;;;;10371821;28;19909;-71
2023/11/20 15:13:36;;;;;;;;;;;;;;;;;;10371797;28;19905;-72
2023/11/20 15:18:37;;;;;;;;;;;;;;;;;;10371509;28;19932;-72
2023/11/20 15:23:37;;;;;;;;;;;;;;;;;;10386703;28;19913;-72
2023/11/20 15:28:37;;;;;;;;;;;;;;;;;;10371476;28;19912;-71
2023/11/20 15:33:38;;;;;;;;;;;;;;;;;;10371437;28;19906;-72
2023/11/20 15:38:39;;;;;;;;;;;;;;;;;;10371835;28;19909;-71
2023/11/20 15:43:39;;;;;;;;;;;;;;;;;;10371347;28;20322;-72
2023/11/20 15:48:39;;;;;;;;;;;;;;;;;;10394335;28;19955;-72
2023/11/20 15:53:39;;;;;;;;;;;;;;;;;;10378449;28;19915;-72
2023/11/20 15:58:39;;;;;;;;;;;;;;;;;;10378831;28;20311;-72
2023/11/20 16:03:40;;;;;;;;;;;;;;;;;;10378796;28;19905;-71
2023/11/20 16:08:40;;;;;;;;;;;;;;;;;;10378525;28;19905;-72
2023/11/20 16:13:40;;;;;;;;;;;;;;;;;;10378535;28;20002;-71
2023/11/20 16:18:41;;;;;;;;;;;;;;;;;;10377993;28;19916;-71
2023/11/20 16:23:41;;;;;;;;;;;;;;;;;;10378563;28;20385;-72
2023/11/20 16:28:42;;;;;;;;;;;;;;;;;;10377783;28;20334;-72
2023/11/20 16:33:42;;;;;;;;;;;;;;;;;;10377598;28;19996;-72
2023/11/20 16:38:42;;;;;;;;;;;;;;;;;;10362961;28;20432;-71
2023/11/20 16:43:43;;;;;;;;;;;;;;;;;;10409726;28;19927;-71
2023/11/20 16:48:43;;;;;;;;;;;;;;;;;;10417795;28;19932;-71
2023/11/20 16:53:43;;;;;;;;;;;;;;;;;;10417465;28;19999;-72
2023/11/20 16:58:43;;;;;;;;;;;;;;;;;;10415974;28;19909;-72
2023/11/20 17:03:43;;;;;;;;;;;;;;;;;;10417378;28;19912;-72
2023/11/20 17:08:44;;;;;;;;;;;;;;;;;;10416969;28;19905;-72
2023/11/20 17:13:46;;;;;;;;;;;;;;;;;;10416958;28;20314;-72
2023/11/20 17:18:46;;;;;;;;;;;;;;;;;;10416672;28;19909;-71
2023/11/20 17:23:47;;;;;;;;;;;;;;;;;;10415342;28;19905;-72
2023/11/20 17:28:47;;;;;;;;;;;;;;;;;;10416403;28;20386;-72
2023/11/20 17:33:47;;;;;;;;;;;;;;;;;;10416145;28;19912;-72
2023/11/20 17:38:47;;;;;;;;;;;;;;;;;;10415993;28;19964;-72
2023/11/20 17:43:47;;;;;;;;;;;;;;;;;;10415974;28;20039;-72
2023/11/20 17:48:47;;;;;;;;;;;;;;;;;;10415616;28;19913;-72
2023/11/20 17:53:49;;;;;;;;;;;;;;;;;;10413883;28;19913;-72
2023/11/20 17:58:49;;;;;;;;;;;;;;;;;;10415082;28;20429;-72
2023/11/20 18:03:49;;;;;;;;;;;;;;;;;;10415247;28;19995;-72
2023/11/20 18:08:49;;;;;;;;;;;;;;;;;;10414793;28;20289;-72
2023/11/20 18:13:49;;;;;;;;;;;;;;;;;;10414747;28;19944;-72
2023/11/20 18:18:49;;;;;;;;;;;;;;;;;;10414454;28;19959;-72
2023/11/20 18:23:50;;;;;;;;;;;;;;;;;;10414366;28;19905;-72
2023/11/20 18:28:51;;;;;;;;;;;;;;;;;;10389721;28;20001;-69
2023/11/20 18:33:51;;;;;;;;;;;;;;;;;;10355045;28;19906;-69
2023/11/20 18:38:51;;;;;;;;;;;;;;;;;;10344718;28;19917;-70
2023/11/20 18:43:51;;;;;;;;;;;;;;;;;;10345601;28;20303;-69
2023/11/20 18:48:51;;;;;;;;;;;;;;;;;;10350881;28;19905;-69
2023/11/20 18:53:51;;;;;;;;;;;;;;;;;;10346433;28;19921;-69
2023/11/20 18:58:51;;;;;;;;;;;;;;;;;;10343819;28;20398;-69
2023/11/20 19:03:51;;;;;;;;;;;;;;;;;;10346318;28;20000;-69
2023/11/20 19:08:54;;;;;;;;;;;;;;;;;;10348416;28;19929;-69
2023/11/20 19:13:54;;;;;;;;;;;;;;;;;;10344796;28;20351;-69
2023/11/20 19:18:55;;;;;;;;;;;;;;;;;;10344607;28;19918;-67
2023/11/20 19:23:55;;;;;;;;;;;;;;;;;;10346484;28;19906;-69
2023/11/20 19:28:55;;;;;;;;;;;;;;;;;;10383242;28;19905;-68
2023/11/20 19:33:57;;;;;;;;;;;;;;;;;;10348129;28;19906;-68
2023/11/20 19:38:57;;;;;;;;;;;;;;;;;;10349980;28;19933;-69
2023/11/20 19:43:57;;;;;;;;;;;;;;;;;;10333988;28;19916;-69
2023/11/20 19:48:57;;;;;;;;;;;;;;;;;;10362335;28;19912;-68
2023/11/20 19:53:58;;;;;;;;;;;;;;;;;;10338820;28;20291;-68
2023/11/20 19:58:59;;;;;;;;;;;;;;;;;;10355061;28;19909;-68
2023/11/20 20:03:59;;;;;;;;;;;;;;;;;;10354317;28;19914;-68
2023/11/20 20:08:59;;;;;;;;;;;;;;;;;;10339045;28;19913;-68
2023/11/20 20:14:00;;;;;;;;;;;;;;;;;;10351676;28;19914;-69
2023/11/20 20:19:00;;;;;;;;;;;;;;;;;;10344780;28;20279;-69
2023/11/20 20:24:00;;;;;;;;;;;;;;;;;;10353660;28;19912;-68
2023/11/20 20:29:00;;;;;;;;;;;;;;;;;;10355885;28;20337;-69
2023/11/20 20:34:01;;;;;;;;;;;;;;;;;;10349972;28;19910;-69
2023/11/20 20:39:01;;;;;;;;;;;;;;;;;;10350062;28;20286;-68
2023/11/20 20:44:02;;;;;;;;;;;;;;;;;;10362581;28;19910;-67
2023/11/20 20:49:02;;;;;;;;;;;;;;;;;;10360208;28;19906;-68
2023/11/20 20:54:02;;;;;;;;;;;;;;;;;;10360319;28;19913;-68
2023/11/20 20:59:04;;;;;;;;;;;;;;;;;;10359974;28;19913;-68
2023/11/20 21:04:04;;;;;;;;;;;;;;;;;;10366324;28;19906;-69
2023/11/20 21:09:05;;;;;;;;;;;;;;;;;;10378392;28;19976;-68
2023/11/20 21:14:05;;;;;;;;;;;;;;;;;;10362438;28;19914;-69
2023/11/20 21:19:06;;;;;;;;;;;;;;;;;;10383219;28;19913;-69
2023/11/20 21:24:06;;;;;;;;;;;;;;;;;;10372637;28;19937;-69
2023/11/20 21:29:08;;;;;;;;;;;;;;;;;;10376490;28;19967;-69
2023/11/20 21:34:08;;;;;;;;;;;;;;;;;;10373573;28;19913;-69
2023/11/20 21:39:11;;;;;;;;;;;;;;;;;;10365365;28;19909;-69
2023/11/20 21:44:11;;;;;;;;;;;;;;;;;;10373430;28;19937;-69
2023/11/20 21:49:11;;;;;;;;;;;;;;;;;;10373058;28;19956;-69
2023/11/20 21:54:12;;;;;;;;;;;;;;;;;;10362969;28;20434;-69
2023/11/20 21:59:12;;;;;;;;;;;;;;;;;;10371930;28;19931;-69
2023/11/20 22:04:12;;;;;;;;;;;;;;;;;;10370351;28;19905;-68
2023/11/20 22:09:13;;;;;;;;;;;;;;;;;;10376919;28;19906;-68
2023/11/20 22:14:13;;;;;;;;;;;;;;;;;;10369945;28;19959;-69
2023/11/20 22:19:13;;;;;;;;;;;;;;;;;;10376315;28;20135;-69
2023/11/20 22:24:13;;;;;;;;;;;;;;;;;;10373189;28;20181;-69
2023/11/20 22:29:14;;;;;;;;;;;;;;;;;;10379464;28;19905;-69
2023/11/20 22:34:14;;;;;;;;;;;;;;;;;;10355123;28;20351;-69
2023/11/20 22:39:15;;;;;;;;;;;;;;;;;;10375395;28;19960;-69
2023/11/20 22:44:15;;;;;;;;;;;;;;;;;;10379530;28;20386;-69
2023/11/20 22:49:16;;;;;;;;;;;;;;;;;;10372664;28;19913;-68
2023/11/20 22:54:17;;;;;;;;;;;;;;;;;;10369257;28;19913;-68
2023/11/20 22:59:17;;;;;;;;;;;;;;;;;;10363578;28;19909;-69
2023/11/20 23:04:18;;;;;;;;;;;;;;;;;;10369038;28;19909;-69
2023/11/20 23:09:19;;;;;;;;;;;;;;;;;;10363088;28;19912;-68
2023/11/20 23:14:19;;;;;;;;;;;;;;;;;;10360352;28;19910;-69
2023/11/20 23:19:19;;;;;;;;;;;;;;;;;;10361657;28;20364;-70
2023/11/20 23:24:19;;;;;;;;;;;;;;;;;;10380219;28;19905;-68
2023/11/20 23:29:19;;;;;;;;;;;;;;;;;;10381874;28;19905;-68
2023/11/20 23:34:21;;;;;;;;;;;;;;;;;;10368540;28;19909;-69
2023/11/20 23:39:21;;;;;;;;;;;;;;;;;;10365667;28;19913;-69
2023/11/20 23:44:21;;;;;;;;;;;;;;;;;;10366434;28;19914;-69
2023/11/20 23:49:21;;;;;;;;;;;;;;;;;;10360413;28;19912;-69
2023/11/20 23:54:21;;;;;;;;;;;;;;;;;;10355152;28;19917;-69
2023/11/20 23:59:21;;;;;;;;;;;;;;;;;;10371936;28;20008;-69
